createdAt,value
2022-10-23T00:00:13.311Z,78.65
2022-10-23T00:02:39.981Z,78.59
2022-10-23T00:05:06.769Z,78.64
2022-10-23T00:07:33.205Z,78.99
2022-10-23T00:09:59.518Z,79.45
2022-10-23T00:12:28.073Z,79.25
2022-10-23T00:14:54.420Z,78.99
2022-10-23T00:17:20.748Z,79.35
2022-10-23T00:19:47.058Z,79.38
2022-10-23T00:22:13.396Z,79.20
2022-10-23T00:24:39.734Z,79.16
2022-10-23T00:27:06.062Z,79.01
2022-10-23T00:29:32.497Z,79.28
2022-10-23T00:31:58.935Z,79.10
2022-10-23T00:34:25.243Z,79.31
2022-10-23T00:36:51.570Z,78.96
2022-10-23T00:39:17.857Z,79.16
2022-10-23T00:41:44.282Z,79.36
2022-10-23T00:44:30.488Z,79.54
2022-10-23T00:46:58.562Z,79.44
2022-10-23T00:49:25.543Z,79.66
2022-10-23T00:51:55.601Z,79.86
2022-10-23T00:54:25.652Z,80.15
2022-10-23T00:56:56.042Z,80.14
2022-10-23T00:59:22.693Z,80.23
2022-10-23T01:01:49.291Z,80.37
2022-10-23T01:04:16.115Z,80.24
2022-10-23T01:07:05.476Z,80.04
2022-10-23T01:09:36.322Z,80.29
2022-10-23T01:12:15.281Z,80.18
2022-10-23T01:15:09.898Z,80.14
2022-10-23T01:17:56.824Z,79.74
2022-10-23T01:20:31.727Z,79.65
2022-10-23T01:23:10.371Z,79.63
2022-10-23T01:26:05.725Z,79.27
2022-10-23T01:28:42.274Z,78.90
2022-10-23T01:31:14.293Z,79.17
2022-10-23T01:33:52.418Z,79.35
2022-10-23T01:36:23.719Z,79.30
2022-10-23T01:39:11.994Z,79.35
2022-10-23T01:41:46.535Z,79.35
2022-10-23T01:44:26.367Z,79.23
2022-10-23T01:46:53.977Z,79.49
2022-10-23T01:49:22.607Z,79.52
2022-10-23T01:51:53.871Z,79.33
2022-10-23T01:54:25.510Z,79.05
2022-10-23T01:56:52.968Z,79.33
2022-10-23T01:59:26.989Z,78.93
2022-10-23T02:01:56.306Z,79.23
2022-10-23T02:04:55.330Z,79.27
2022-10-23T02:07:21.899Z,79.16
2022-10-23T02:09:48.345Z,79.10
2022-10-23T02:12:47.562Z,79.19
2022-10-23T02:15:38.499Z,79.06
2022-10-23T02:18:27.634Z,79.23
2022-10-23T02:20:58.982Z,79.21
2022-10-23T02:24:01.434Z,79.44
2022-10-23T02:26:35.065Z,79.18
2022-10-23T02:29:27.737Z,79.54
2022-10-23T02:31:54.156Z,79.84
2022-10-23T02:34:20.500Z,79.53
2022-10-23T02:36:47.068Z,79.66
2022-10-23T02:39:13.447Z,79.52
2022-10-23T02:42:03.388Z,79.76
2022-10-23T02:45:01.073Z,79.83
2022-10-23T02:47:39.611Z,80.05
2022-10-23T02:50:42.036Z,79.99
2022-10-23T02:53:20.211Z,79.94
2022-10-23T02:55:55.391Z,80.02
2022-10-23T02:58:43.426Z,79.90
2022-10-23T03:01:14.691Z,80.17
2022-10-23T03:03:55.276Z,80.20
2022-10-23T03:06:23.176Z,80.18
2022-10-23T03:08:53.832Z,80.02
2022-10-23T03:11:20.773Z,79.95
2022-10-23T03:13:47.068Z,80.18
2022-10-23T03:16:13.462Z,80.35
2022-10-23T03:18:39.796Z,80.20
2022-10-23T03:21:06.314Z,80.26
2022-10-23T03:23:32.684Z,80.60
2022-10-23T03:25:58.989Z,80.44
2022-10-23T03:28:25.303Z,80.78
2022-10-23T03:30:52.297Z,80.43
2022-10-23T03:33:18.768Z,80.65
2022-10-23T03:35:45.629Z,80.76
2022-10-23T03:38:11.978Z,80.71
2022-10-23T03:40:38.316Z,81.16
2022-10-23T03:43:04.658Z,80.81
2022-10-23T03:45:32.449Z,80.87
2022-10-23T03:47:58.741Z,80.50
2022-10-23T03:50:25.210Z,80.67
2022-10-23T03:52:51.651Z,81.03
2022-10-23T03:55:18.032Z,80.69
2022-10-23T03:57:44.343Z,80.96
2022-10-23T04:00:11.053Z,81.03
2022-10-23T04:02:37.454Z,81.20
2022-10-23T04:05:03.962Z,80.92
2022-10-23T04:07:30.302Z,81.45
2022-10-23T04:09:56.596Z,81.03
2022-10-23T04:12:22.953Z,81.01
2022-10-23T04:14:49.251Z,81.40
2022-10-23T04:17:15.638Z,81.40
2022-10-23T04:19:41.965Z,81.29
2022-10-23T04:22:08.343Z,81.35
2022-10-23T04:24:34.749Z,81.36
2022-10-23T04:27:01.081Z,81.15
2022-10-23T04:29:29.318Z,81.04
2022-10-23T04:31:55.798Z,81.02
2022-10-23T04:34:22.225Z,80.97
2022-10-23T04:36:48.524Z,80.94
2022-10-23T04:39:14.878Z,81.18
2022-10-23T04:41:41.246Z,81.18
2022-10-23T04:44:08.251Z,81.20
2022-10-23T04:46:34.583Z,81.27
2022-10-23T04:49:00.870Z,81.30
2022-10-23T04:51:27.325Z,81.08
2022-10-23T04:53:53.617Z,81.35
2022-10-23T04:56:20.048Z,81.16
2022-10-23T04:58:46.404Z,81.11
2022-10-23T05:01:12.770Z,81.41
2022-10-23T05:03:39.355Z,81.44
2022-10-23T05:06:06.071Z,81.35
2022-10-23T05:08:32.517Z,81.63
2022-10-23T05:10:58.902Z,81.58
2022-10-23T05:13:25.346Z,81.42
2022-10-23T05:15:53.092Z,81.36
2022-10-23T05:18:35.247Z,81.10
2022-10-23T05:21:26.895Z,81.15
2022-10-23T05:23:54.623Z,80.91
2022-10-23T05:26:22.335Z,81.15
2022-10-23T05:28:49.247Z,81.02
2022-10-23T05:31:17.557Z,81.14
2022-10-23T05:33:44.196Z,81.10
2022-10-23T05:36:12.534Z,80.88
2022-10-23T05:38:39.069Z,80.95
2022-10-23T05:41:05.424Z,80.89
2022-10-23T05:43:31.800Z,80.88
2022-10-23T05:45:58.552Z,80.77
2022-10-23T05:48:35.793Z,80.66
2022-10-23T05:51:10.078Z,80.90
2022-10-23T05:53:38.876Z,80.64
2022-10-23T05:56:08.946Z,80.87
2022-10-23T05:58:35.491Z,80.73
2022-10-23T06:01:09.535Z,80.81
2022-10-23T06:03:37.146Z,80.82
2022-10-23T06:06:04.126Z,81.13
2022-10-23T06:08:31.286Z,80.92
2022-10-23T06:10:57.882Z,80.70
2022-10-23T06:13:24.243Z,80.74
2022-10-23T06:15:50.593Z,80.86
2022-10-23T06:18:17.028Z,80.91
2022-10-23T06:20:44.182Z,80.71
2022-10-23T06:23:10.501Z,80.68
2022-10-23T06:25:36.837Z,80.82
2022-10-23T06:28:03.156Z,80.52
2022-10-23T06:30:29.522Z,80.80
2022-10-23T06:32:55.952Z,80.66
2022-10-23T06:35:22.787Z,80.54
2022-10-23T06:37:49.143Z,80.97
2022-10-23T06:40:15.486Z,81.02
2022-10-23T06:42:42.056Z,80.90
2022-10-23T06:45:09.000Z,81.11
2022-10-23T06:47:35.389Z,81.04
2022-10-23T06:50:01.817Z,81.11
2022-10-23T06:52:47.825Z,80.98
2022-10-23T06:55:14.654Z,80.87
2022-10-23T06:57:41.377Z,80.92
2022-10-23T07:00:08.530Z,81.02
2022-10-23T07:02:34.972Z,81.20
2022-10-23T07:05:01.443Z,81.20
2022-10-23T07:07:30.201Z,81.26
2022-10-23T07:09:56.799Z,81.08
2022-10-23T07:12:23.171Z,81.27
2022-10-23T07:14:49.510Z,81.25
2022-10-23T07:17:15.844Z,81.25
2022-10-23T07:19:42.151Z,81.09
2022-10-23T07:22:10.759Z,80.97
2022-10-23T07:24:40.146Z,81.05
2022-10-23T07:27:06.538Z,80.90
2022-10-23T07:29:33.273Z,80.89
2022-10-23T07:32:04.367Z,80.90
2022-10-23T07:34:31.582Z,80.82
2022-10-23T07:36:57.966Z,80.79
2022-10-23T07:39:24.267Z,81.21
2022-10-23T07:41:50.655Z,81.19
2022-10-23T07:44:17.537Z,81.84
2022-10-23T07:46:44.853Z,81.82
2022-10-23T07:49:11.443Z,82.06
2022-10-23T07:51:37.773Z,81.75
2022-10-23T07:54:04.160Z,81.19
2022-10-23T07:56:31.338Z,81.58
2022-10-23T07:58:57.866Z,81.33
2022-10-23T08:01:31.602Z,81.56
2022-10-23T08:03:58.623Z,81.02
2022-10-23T08:06:25.043Z,81.33
2022-10-23T08:08:51.437Z,81.65
2022-10-23T08:11:25.684Z,81.18
2022-10-23T08:13:55.911Z,81.11
2022-10-23T08:16:22.851Z,80.45
2022-10-23T08:18:50.368Z,80.00
2022-10-23T08:21:17.959Z,80.27
2022-10-23T08:23:44.811Z,80.49
2022-10-23T08:26:11.804Z,80.33
2022-10-23T08:28:38.434Z,79.84
2022-10-23T08:31:09.985Z,80.19
2022-10-23T08:33:37.027Z,80.18
2022-10-23T08:36:03.861Z,79.36
2022-10-23T08:38:30.194Z,78.83
2022-10-23T08:40:56.533Z,79.14
2022-10-23T08:43:34.328Z,78.79
2022-10-23T08:46:08.653Z,79.18
2022-10-23T08:48:48.977Z,79.08
2022-10-23T08:51:25.688Z,79.05
2022-10-23T08:54:00.047Z,78.96
2022-10-23T08:56:28.992Z,79.35
2022-10-23T08:59:15.010Z,79.81
2022-10-23T09:01:49.499Z,79.71
2022-10-23T09:04:16.427Z,79.44
2022-10-23T09:07:15.935Z,79.06
2022-10-23T09:10:03.301Z,78.90
2022-10-23T09:12:31.119Z,78.77
2022-10-23T09:15:15.489Z,77.42
2022-10-23T09:17:44.135Z,77.42
2022-10-23T09:20:17.889Z,77.51
2022-10-23T09:22:45.285Z,77.69
2022-10-23T09:25:26.728Z,76.98
2022-10-23T09:28:00.072Z,77.04
2022-10-23T09:30:35.659Z,77.93
2022-10-23T09:33:21.609Z,77.72
2022-10-23T09:35:55.708Z,78.10
2022-10-23T09:38:27.723Z,77.31
2022-10-23T09:40:54.231Z,76.54
2022-10-23T09:43:23.997Z,75.60
2022-10-23T09:46:02.654Z,75.54
2022-10-23T09:48:29.489Z,75.60
2022-10-23T09:51:23.634Z,75.63
2022-10-23T09:53:58.927Z,75.85
2022-10-23T09:56:39.894Z,76.01
2022-10-23T09:59:22.311Z,76.17
2022-10-23T10:01:52.554Z,75.28
2022-10-23T10:04:19.317Z,75.05
2022-10-23T10:06:45.688Z,74.37
2022-10-23T10:09:14.850Z,73.74
2022-10-23T10:11:46.261Z,74.05
2022-10-23T10:14:27.714Z,74.23
2022-10-23T10:17:01.037Z,74.40
2022-10-23T10:20:03.958Z,74.17
2022-10-23T10:22:54.482Z,74.23
2022-10-23T10:25:38.253Z,74.96
2022-10-23T10:28:26.279Z,74.73
2022-10-23T10:30:55.696Z,75.01
2022-10-23T10:33:45.740Z,74.83
2022-10-23T10:36:37.801Z,75.33
2022-10-23T10:39:11.843Z,75.06
2022-10-23T10:42:08.855Z,74.89
2022-10-23T10:44:53.577Z,74.58
2022-10-23T10:47:26.152Z,74.81
2022-10-23T10:50:16.945Z,74.75
2022-10-23T10:52:58.443Z,75.08
2022-10-23T10:55:33.833Z,75.02
2022-10-23T10:58:13.718Z,74.55
2022-10-23T11:00:40.606Z,74.12
2022-10-23T11:03:25.744Z,74.34
2022-10-23T11:05:55.832Z,73.84
2022-10-23T11:08:44.394Z,73.79
2022-10-23T11:11:30.007Z,73.43
2022-10-23T11:13:57.493Z,73.67
2022-10-23T11:16:29.133Z,73.99
2022-10-23T11:19:30.960Z,73.53
2022-10-23T11:22:04.836Z,72.91
2022-10-23T11:24:58.223Z,72.31
2022-10-23T11:27:46.716Z,72.26
2022-10-23T11:30:22.506Z,72.07
2022-10-23T11:32:56.745Z,71.87
2022-10-23T11:35:45.297Z,71.08
2022-10-23T11:38:23.601Z,70.87
2022-10-23T11:40:57.052Z,69.63
2022-10-23T11:43:33.347Z,68.40
2022-10-23T11:46:13.275Z,67.98
2022-10-23T11:48:42.245Z,67.73
2022-10-23T11:51:34.675Z,66.74
2022-10-23T11:54:10.065Z,66.83
2022-10-23T11:56:57.774Z,67.31
2022-10-23T11:59:48.734Z,66.32
2022-10-23T12:02:28.733Z,65.86
2022-10-23T12:04:55.471Z,64.91
2022-10-23T12:07:29.659Z,64.61
2022-10-23T12:09:59.801Z,65.26
2022-10-23T12:12:31.071Z,65.94
2022-10-23T12:15:11.683Z,65.45
2022-10-23T12:17:40.212Z,65.33
2022-10-23T12:20:12.401Z,65.56
2022-10-23T12:22:44.309Z,65.50
2022-10-23T12:25:17.209Z,65.44
2022-10-23T12:28:10.435Z,65.84
2022-10-23T12:33:30.299Z,64.56
2022-10-23T12:36:28.163Z,64.90
2022-10-23T12:38:58.372Z,64.86
2022-10-23T12:41:27.912Z,65.01
2022-10-23T12:43:57.873Z,65.66
2022-10-23T12:46:39.217Z,65.28
2022-10-23T12:49:15.166Z,65.44
2022-10-23T12:51:41.569Z,65.05
2022-10-23T12:54:19.954Z,65.59
2022-10-23T12:56:47.089Z,65.96
2022-10-23T12:59:37.915Z,65.40
2022-10-23T13:02:33.833Z,66.11
2022-10-23T13:05:03.655Z,65.63
2022-10-23T13:07:34.050Z,65.77
2022-10-23T13:10:01.731Z,65.91
2022-10-23T13:12:34.800Z,66.58
2022-10-23T13:15:03.403Z,66.65
2022-10-23T13:17:47.689Z,66.09
2022-10-23T13:20:26.829Z,65.63
2022-10-23T13:23:01.820Z,65.91
2022-10-23T13:25:33.318Z,66.11
2022-10-23T13:28:14.896Z,66.21
2022-10-23T13:30:45.807Z,66.64
2022-10-23T13:33:22.634Z,66.67
2022-10-23T13:36:00.382Z,66.99
2022-10-23T13:38:37.679Z,66.49
2022-10-23T13:41:06.328Z,66.64
2022-10-23T13:43:34.107Z,67.24
2022-10-23T13:46:01.049Z,66.67
2022-10-23T13:48:28.294Z,66.91
2022-10-23T13:51:06.257Z,67.08
2022-10-23T13:53:33.220Z,67.24
2022-10-23T13:55:59.922Z,67.71
2022-10-23T13:58:26.403Z,67.58
2022-10-23T14:00:53.193Z,67.81
2022-10-23T14:03:24.106Z,67.80
2022-10-23T14:05:51.299Z,68.18
2022-10-23T14:08:17.969Z,68.59
2022-10-23T14:10:45.606Z,68.48
2022-10-23T14:13:12.137Z,68.35
2022-10-23T14:15:38.735Z,68.15
2022-10-23T14:18:08.177Z,68.03
2022-10-23T14:20:35.174Z,67.65
2022-10-23T14:23:01.977Z,67.86
2022-10-23T14:25:28.504Z,68.10
2022-10-23T14:30:26.548Z,67.83
2022-10-23T14:32:53.012Z,68.00
2022-10-23T14:35:19.741Z,67.79
2022-10-23T14:37:46.629Z,68.04
2022-10-23T14:40:13.622Z,68.46
2022-10-23T14:42:40.093Z,68.78
2022-10-23T14:45:07.137Z,69.02
2022-10-23T14:47:33.668Z,69.03
2022-10-23T14:50:00.609Z,69.38
2022-10-23T14:52:27.247Z,69.46
2022-10-23T14:54:53.948Z,69.68
2022-10-23T14:57:22.031Z,69.90
2022-10-23T14:59:49.726Z,69.49
2022-10-23T15:02:17.059Z,69.68
2022-10-23T15:04:43.568Z,69.70
2022-10-23T15:07:10.115Z,69.58
2022-10-23T15:09:37.373Z,69.99
2022-10-23T15:12:05.133Z,70.00
2022-10-23T15:14:32.365Z,70.05
2022-10-23T15:16:58.948Z,70.65
2022-10-23T15:19:25.930Z,70.75
2022-10-23T15:21:52.677Z,71.64
2022-10-23T15:24:21.177Z,72.72
2022-10-23T15:26:48.557Z,74.95
2022-10-23T15:29:16.027Z,75.37
2022-10-23T15:31:53.323Z,77.06
2022-10-23T15:34:23.333Z,77.65
2022-10-23T15:36:51.690Z,78.50
2022-10-23T15:39:22.163Z,79.85
2022-10-23T15:41:52.451Z,81.39
2022-10-23T15:44:21.452Z,81.70
2022-10-23T15:46:48.726Z,82.43
2022-10-23T15:49:15.997Z,82.73
2022-10-23T15:51:43.408Z,83.23
2022-10-23T15:54:16.672Z,83.81
2022-10-23T15:56:44.393Z,83.66
2022-10-23T15:59:11.688Z,83.69
2022-10-23T16:01:38.606Z,84.30
2022-10-23T16:04:05.223Z,84.38
2022-10-23T16:06:32.262Z,84.39
2022-10-23T16:08:59.503Z,84.13
2022-10-23T16:11:29.535Z,83.46
2022-10-23T16:13:58.757Z,83.27
2022-10-23T16:16:26.682Z,83.04
2022-10-23T16:18:53.632Z,82.52
2022-10-23T16:21:21.877Z,82.69
2022-10-23T16:23:48.997Z,83.13
2022-10-23T16:26:16.199Z,83.59
2022-10-23T16:28:44.834Z,84.24
2022-10-23T16:31:19.371Z,85.26
2022-10-23T16:33:47.809Z,86.26
2022-10-23T16:36:14.359Z,86.62
2022-10-23T16:38:41.099Z,86.49
2022-10-23T16:41:07.989Z,86.55
2022-10-23T16:43:34.739Z,86.57
2022-10-23T16:46:05.264Z,86.81
2022-10-23T16:48:33.649Z,86.35
2022-10-23T16:51:01.392Z,86.22
2022-10-23T16:53:30.994Z,86.41
2022-10-23T16:55:58.354Z,86.43
2022-10-23T16:58:26.178Z,85.63
2022-10-23T17:01:05.926Z,85.21
2022-10-23T17:03:41.978Z,85.35
2022-10-23T17:06:11.459Z,85.30
2022-10-23T17:08:38.440Z,85.56
2022-10-23T17:11:07.804Z,84.37
2022-10-23T17:13:35.434Z,84.30
2022-10-23T17:16:07.589Z,83.74
2022-10-23T17:18:36.802Z,84.15
2022-10-23T17:21:05.298Z,84.41
2022-10-23T17:23:31.704Z,84.69
2022-10-23T17:25:58.947Z,83.96
2022-10-23T17:28:25.581Z,83.93
2022-10-23T17:30:52.360Z,84.11
2022-10-23T17:33:19.229Z,83.49
2022-10-23T17:35:46.228Z,82.92
2022-10-23T17:38:17.907Z,82.38
2022-10-23T17:43:17.154Z,82.44
2022-10-23T17:45:45.166Z,82.14
2022-10-23T17:48:13.251Z,82.29
2022-10-23T17:50:40.863Z,81.82
2022-10-23T17:53:08.004Z,81.22
2022-10-23T17:55:41.202Z,80.83
2022-10-23T17:58:08.324Z,80.89
2022-10-23T18:00:36.555Z,80.72
2022-10-23T18:03:03.837Z,80.14
2022-10-23T18:05:33.217Z,80.89
2022-10-23T18:08:00.097Z,80.73
2022-10-23T18:10:26.712Z,80.16
2022-10-23T18:12:53.203Z,79.52
2022-10-23T18:15:19.710Z,79.56
2022-10-23T18:17:46.305Z,79.37
2022-10-23T18:20:14.644Z,78.78
2022-10-23T18:22:41.027Z,78.74
2022-10-23T18:25:07.914Z,78.35
2022-10-23T18:27:34.331Z,77.66
2022-10-23T18:30:00.830Z,76.93
2022-10-23T18:32:27.828Z,76.77
2022-10-23T18:34:54.166Z,76.00
2022-10-23T18:37:20.480Z,75.83
2022-10-23T18:39:46.793Z,75.36
2022-10-23T18:42:13.202Z,74.93
2022-10-23T18:44:39.578Z,74.97
2022-10-23T18:47:05.981Z,75.13
2022-10-23T18:49:32.373Z,74.76
2022-10-23T18:51:58.780Z,74.84
2022-10-23T18:54:25.114Z,74.76
2022-10-23T18:56:51.421Z,74.71
2022-10-23T18:59:20.725Z,74.61
2022-10-23T19:01:47.697Z,74.63
2022-10-23T19:04:19.943Z,74.71
2022-10-23T19:06:53.163Z,74.94
2022-10-23T19:09:24.475Z,75.37
2022-10-23T19:11:55.432Z,74.79
2022-10-23T19:14:21.742Z,75.35
2022-10-23T19:17:00.088Z,75.17
2022-10-23T19:19:37.278Z,75.11
2022-10-23T19:22:04.574Z,74.59
2022-10-23T19:24:40.786Z,74.03
2022-10-23T19:27:07.965Z,74.02
2022-10-23T19:29:38.109Z,73.64
2022-10-23T19:32:04.667Z,73.86
2022-10-23T19:34:31.099Z,73.26
2022-10-23T19:36:57.462Z,73.28
2022-10-23T19:39:25.666Z,73.15
2022-10-23T19:41:53.171Z,72.76
2022-10-23T19:44:20.811Z,72.08
2022-10-23T19:46:48.151Z,72.30
2022-10-23T19:49:15.046Z,72.11
2022-10-23T19:51:50.420Z,72.06
2022-10-23T19:54:17.626Z,71.85
2022-10-23T19:56:43.944Z,71.65
2022-10-23T19:59:12.923Z,71.25
2022-10-23T20:01:39.495Z,71.06
2022-10-23T20:04:05.946Z,74.57
2022-10-23T20:06:34.553Z,80.63
2022-10-23T20:09:02.557Z,85.30
2022-10-23T20:11:30.755Z,90.60
2022-10-23T20:13:57.807Z,92.35
2022-10-23T20:16:27.335Z,95.10
2022-10-23T20:18:53.977Z,94.09
2022-10-23T20:21:20.900Z,94.25
2022-10-23T20:23:47.714Z,95.15
2022-10-23T20:26:17.458Z,94.89
2022-10-23T20:28:47.039Z,94.78
2022-10-23T20:31:14.911Z,94.62
2022-10-23T20:33:42.299Z,94.56
2022-10-23T20:36:20.365Z,94.07
2022-10-23T20:38:46.783Z,93.55
2022-10-23T20:41:13.104Z,93.37
2022-10-23T20:43:39.519Z,93.15
2022-10-23T20:46:08.609Z,93.50
2022-10-23T20:48:39.264Z,93.50
2022-10-23T20:51:11.801Z,93.00
2022-10-23T20:53:38.894Z,92.98
2022-10-23T20:56:19.704Z,93.13
2022-10-23T20:58:46.370Z,93.19
2022-10-23T21:01:16.263Z,92.88
2022-10-23T21:03:43.456Z,93.03
2022-10-23T21:06:13.056Z,93.03
2022-10-23T21:08:40.799Z,93.00
2022-10-23T21:11:10.573Z,93.53
2022-10-23T21:13:36.882Z,93.34
2022-10-23T21:16:17.238Z,93.16
2022-10-23T21:18:46.632Z,93.04
2022-10-23T21:21:19.173Z,92.50
2022-10-23T21:23:47.729Z,92.53
2022-10-23T21:26:15.666Z,92.54
2022-10-23T21:28:55.730Z,92.46
2022-10-23T21:31:31.939Z,92.23
2022-10-23T21:33:59.548Z,92.55
2022-10-23T21:36:25.992Z,92.06
2022-10-23T21:38:54.610Z,91.56
2022-10-23T21:41:23.691Z,91.40
2022-10-23T21:43:54.861Z,91.81
2022-10-23T21:46:22.730Z,91.15
2022-10-23T21:48:49.199Z,90.91
2022-10-23T21:51:29.095Z,90.27
2022-10-23T21:53:56.873Z,90.55
2022-10-23T21:56:30.927Z,90.87
2022-10-23T21:58:59.199Z,90.85
2022-10-23T22:01:26.476Z,90.78
2022-10-23T22:03:53.282Z,90.99
2022-10-23T22:06:22.466Z,91.15
2022-10-23T22:08:50.388Z,90.90
2022-10-23T22:11:16.968Z,90.73
2022-10-23T22:13:44.314Z,90.53
2022-10-23T22:16:13.655Z,90.93
2022-10-23T22:18:40.801Z,90.00
2022-10-23T22:21:11.040Z,90.01
2022-10-23T22:23:37.952Z,89.66
2022-10-23T22:26:23.871Z,89.55
2022-10-23T22:28:52.103Z,89.30
2022-10-23T22:31:22.323Z,89.53
2022-10-23T22:33:49.171Z,89.34
2022-10-23T22:36:15.563Z,89.44
2022-10-23T22:38:42.425Z,88.39
2022-10-23T22:41:09.011Z,88.85
2022-10-23T22:43:35.417Z,88.43
2022-10-23T22:46:10.530Z,88.08
2022-10-23T22:48:37.802Z,88.29
2022-10-23T22:51:07.331Z,88.41
2022-10-23T22:53:35.305Z,88.05
2022-10-23T22:56:16.252Z,88.06
2022-10-23T22:58:43.022Z,88.21
2022-10-23T23:01:15.518Z,88.19
2022-10-23T23:03:42.857Z,87.69
2022-10-23T23:06:09.817Z,88.29
2022-10-23T23:08:38.505Z,87.82
2022-10-23T23:11:06.943Z,87.30
2022-10-23T23:13:33.999Z,87.23
2022-10-23T23:16:01.047Z,87.30
2022-10-23T23:18:27.850Z,87.20
2022-10-23T23:20:54.167Z,86.95
2022-10-23T23:23:20.604Z,87.10
2022-10-23T23:25:49.018Z,86.29
2022-10-23T23:28:18.172Z,86.67
2022-10-23T23:33:13.945Z,86.16
2022-10-23T23:35:41.907Z,86.08
2022-10-23T23:38:08.888Z,86.06
2022-10-23T23:40:35.314Z,85.75
2022-10-23T23:43:01.681Z,85.89
2022-10-23T23:45:28.157Z,86.03
2022-10-23T23:47:54.541Z,85.59
2022-10-23T23:50:21.034Z,85.16
2022-10-23T23:52:47.414Z,83.89
2022-10-23T23:55:14.154Z,84.39
2022-10-23T23:57:40.571Z,84.37
